Morrill, Kansas
Current Conditions -  °F | °C
As of 9:53 AM on Sunday 25 Jan 2015 (Local Time) from KFNB Reporting Station
Light Rain Light Rain  
Wind Chill: 26°   Ceiling: 1300
Heat Index: 37°   Visibility: 9mi
Dew Point: 32°   Wind: 21mph
Humidity: 82%   Direction: 330°NNW
Pressure: 29.83"   Gusts: 30mph
Location:  39.93°N, 95.69°W
Report Text: KFNB 251553Z AUTO 33018G26KT 9SM -RA OVC013 03/00 A2983 RMK AO2 PK WND 33030/1507 SLP104 P0000 T00280000
Loading
Personal Weather Stations






























Interactive Weather Map New forecast layout! Learn more

10-Day Weather Forecast

Advertisements
Track Severe Weather on mobile